sensor_id;sensor_type;location;lat;lon;timestamp;P1;durP1;ratioP1;P2;durP2;ratioP2
77432;SDS011;66752;48.576;8.876;2023-04-30T00:00:00;10.30;;;5.68;;
77432;SDS011;66752;48.576;8.876;2023-04-30T00:02:26;9.52;;;5.40;;
77432;SDS011;66752;48.576;8.876;2023-04-30T00:04:52;10.55;;;5.38;;
77432;SDS011;66752;48.576;8.876;2023-04-30T00:07:18;8.48;;;4.90;;
77432;SDS011;66752;48.576;8.876;2023-04-30T00:09:44;10.45;;;4.90;;
77432;SDS011;66752;48.576;8.876;2023-04-30T00:12:10;9.73;;;5.28;;
77432;SDS011;66752;48.576;8.876;2023-04-30T00:14:36;10.98;;;5.75;;
77432;SDS011;66752;48.576;8.876;2023-04-30T00:17:02;8.70;;;5.45;;
77432;SDS011;66752;48.576;8.876;2023-04-30T00:19:28;8.90;;;5.10;;
77432;SDS011;66752;48.576;8.876;2023-04-30T00:21:54;9.32;;;5.07;;
77432;SDS011;66752;48.576;8.876;2023-04-30T00:24:20;8.57;;;5.45;;
77432;SDS011;66752;48.576;8.876;2023-04-30T00:26:46;9.88;;;5.72;;
77432;SDS011;66752;48.576;8.876;2023-04-30T00:29:12;8.80;;;4.93;;
77432;SDS011;66752;48.576;8.876;2023-04-30T00:31:38;9.18;;;5.45;;
77432;SDS011;66752;48.576;8.876;2023-04-30T00:34:04;9.90;;;4.97;;
77432;SDS011;66752;48.576;8.876;2023-04-30T00:36:30;9.70;;;6.10;;
77432;SDS011;66752;48.576;8.876;2023-04-30T00:38:57;7.57;;;4.55;;
77432;SDS011;66752;48.576;8.876;2023-04-30T00:41:23;9.07;;;5.15;;
77432;SDS011;66752;48.576;8.876;2023-04-30T00:43:50;11.00;;;6.00;;
77432;SDS011;66752;48.576;8.876;2023-04-30T00:46:16;17.02;;;8.68;;
77432;SDS011;66752;48.576;8.876;2023-04-30T00:48:42;14.73;;;8.55;;
77432;SDS011;66752;48.576;8.876;2023-04-30T00:51:08;10.13;;;5.72;;
77432;SDS011;66752;48.576;8.876;2023-04-30T00:53:34;10.73;;;4.93;;
77432;SDS011;66752;48.576;8.876;2023-04-30T00:56:01;10.50;;;5.85;;
77432;SDS011;66752;48.576;8.876;2023-04-30T01:00:53;8.95;;;5.63;;
77432;SDS011;66752;48.576;8.876;2023-04-30T01:03:19;9.85;;;5.32;;
77432;SDS011;66752;48.576;8.876;2023-04-30T01:05:46;8.85;;;4.97;;
77432;SDS011;66752;48.576;8.876;2023-04-30T01:08:13;9.75;;;5.40;;
77432;SDS011;66752;48.576;8.876;2023-04-30T01:10:47;9.98;;;4.70;;
77432;SDS011;66752;48.576;8.876;2023-04-30T01:13:21;9.27;;;4.75;;
77432;SDS011;66752;48.576;8.876;2023-04-30T01:18:36;9.98;;;5.82;;
77432;SDS011;66752;48.576;8.876;2023-04-30T01:21:04;9.48;;;5.05;;
77432;SDS011;66752;48.576;8.876;2023-04-30T01:28:36;8.82;;;5.55;;
77432;SDS011;66752;48.576;8.876;2023-04-30T01:31:02;8.23;;;4.88;;
77432;SDS011;66752;48.576;8.876;2023-04-30T01:33:36;8.38;;;5.03;;
77432;SDS011;66752;48.576;8.876;2023-04-30T01:36:24;8.05;;;4.95;;
77432;SDS011;66752;48.576;8.876;2023-04-30T01:53:58;9.63;;;4.93;;
77432;SDS011;66752;48.576;8.876;2023-04-30T01:56:31;11.20;;;5.20;;
77432;SDS011;66752;48.576;8.876;2023-04-30T01:58:57;9.00;;;5.28;;
77432;SDS011;66752;48.576;8.876;2023-04-30T02:01:24;8.10;;;4.70;;
77432;SDS011;66752;48.576;8.876;2023-04-30T02:03:51;8.90;;;4.93;;
77432;SDS011;66752;48.576;8.876;2023-04-30T02:06:17;9.73;;;4.72;;
77432;SDS011;66752;48.576;8.876;2023-04-30T02:08:43;9.05;;;5.22;;
77432;SDS011;66752;48.576;8.876;2023-04-30T02:11:09;9.10;;;5.22;;
77432;SDS011;66752;48.576;8.876;2023-04-30T02:13:35;8.90;;;4.95;;
77432;SDS011;66752;48.576;8.876;2023-04-30T02:16:01;9.77;;;5.43;;
77432;SDS011;66752;48.576;8.876;2023-04-30T02:18:28;7.07;;;4.47;;
77432;SDS011;66752;48.576;8.876;2023-04-30T02:20:54;8.25;;;4.80;;
77432;SDS011;66752;48.576;8.876;2023-04-30T02:23:20;10.02;;;4.72;;
77432;SDS011;66752;48.576;8.876;2023-04-30T02:25:45;8.35;;;4.78;;
77432;SDS011;66752;48.576;8.876;2023-04-30T02:28:11;8.45;;;5.38;;
77432;SDS011;66752;48.576;8.876;2023-04-30T02:30:37;8.43;;;5.15;;
77432;SDS011;66752;48.576;8.876;2023-04-30T02:33:03;10.02;;;5.45;;
77432;SDS011;66752;48.576;8.876;2023-04-30T02:35:29;8.15;;;5.18;;
77432;SDS011;66752;48.576;8.876;2023-04-30T02:37:55;8.88;;;5.03;;
77432;SDS011;66752;48.576;8.876;2023-04-30T02:40:21;8.80;;;4.80;;
77432;SDS011;66752;48.576;8.876;2023-04-30T02:42:47;8.52;;;4.93;;
77432;SDS011;66752;48.576;8.876;2023-04-30T02:45:13;10.57;;;5.70;;
77432;SDS011;66752;48.576;8.876;2023-04-30T02:47:39;8.57;;;4.72;;
77432;SDS011;66752;48.576;8.876;2023-04-30T02:50:05;7.90;;;4.68;;
77432;SDS011;66752;48.576;8.876;2023-04-30T02:52:31;8.77;;;4.93;;
77432;SDS011;66752;48.576;8.876;2023-04-30T02:54:57;9.43;;;6.10;;
77432;SDS011;66752;48.576;8.876;2023-04-30T02:57:23;10.25;;;4.95;;
77432;SDS011;66752;48.576;8.876;2023-04-30T02:59:50;9.77;;;5.20;;
77432;SDS011;66752;48.576;8.876;2023-04-30T03:02:16;10.23;;;5.20;;
77432;SDS011;66752;48.576;8.876;2023-04-30T03:04:45;10.02;;;5.28;;
77432;SDS011;66752;48.576;8.876;2023-04-30T03:07:11;8.80;;;4.95;;
77432;SDS011;66752;48.576;8.876;2023-04-30T03:09:37;9.57;;;5.28;;
77432;SDS011;66752;48.576;8.876;2023-04-30T03:12:03;9.60;;;5.32;;
77432;SDS011;66752;48.576;8.876;2023-04-30T03:14:29;8.55;;;5.00;;
77432;SDS011;66752;48.576;8.876;2023-04-30T03:16:55;8.07;;;5.03;;
77432;SDS011;66752;48.576;8.876;2023-04-30T03:19:21;13.85;;;7.65;;
77432;SDS011;66752;48.576;8.876;2023-04-30T03:21:49;14.48;;;8.65;;
77432;SDS011;66752;48.576;8.876;2023-04-30T03:24:16;71.55;;;36.42;;
77432;SDS011;66752;48.576;8.876;2023-04-30T03:26:42;49.00;;;26.63;;
77432;SDS011;66752;48.576;8.876;2023-04-30T03:29:08;28.33;;;17.10;;
77432;SDS011;66752;48.576;8.876;2023-04-30T03:31:33;15.90;;;9.60;;
77432;SDS011;66752;48.576;8.876;2023-04-30T03:34:00;14.80;;;9.23;;
77432;SDS011;66752;48.576;8.876;2023-04-30T03:36:25;13.40;;;7.65;;
77432;SDS011;66752;48.576;8.876;2023-04-30T03:38:52;13.60;;;7.35;;
77432;SDS011;66752;48.576;8.876;2023-04-30T03:41:18;9.52;;;6.53;;
77432;SDS011;66752;48.576;8.876;2023-04-30T03:43:44;11.98;;;6.93;;
77432;SDS011;66752;48.576;8.876;2023-04-30T03:46:10;11.32;;;7.10;;
77432;SDS011;66752;48.576;8.876;2023-04-30T03:48:36;11.48;;;5.50;;
77432;SDS011;66752;48.576;8.876;2023-04-30T03:51:02;10.52;;;6.22;;
77432;SDS011;66752;48.576;8.876;2023-04-30T03:53:28;10.38;;;5.93;;
77432;SDS011;66752;48.576;8.876;2023-04-30T03:55:54;9.93;;;5.95;;
77432;SDS011;66752;48.576;8.876;2023-04-30T03:58:20;11.73;;;6.93;;
77432;SDS011;66752;48.576;8.876;2023-04-30T04:00:46;10.05;;;5.90;;
77432;SDS011;66752;48.576;8.876;2023-04-30T04:03:13;9.73;;;5.65;;
77432;SDS011;66752;48.576;8.876;2023-04-30T04:05:39;10.55;;;5.70;;
77432;SDS011;66752;48.576;8.876;2023-04-30T04:08:06;12.50;;;6.38;;
77432;SDS011;66752;48.576;8.876;2023-04-30T04:10:33;10.45;;;5.78;;
77432;SDS011;66752;48.576;8.876;2023-04-30T04:12:59;11.07;;;6.05;;
77432;SDS011;66752;48.576;8.876;2023-04-30T04:15:25;10.18;;;6.18;;
77432;SDS011;66752;48.576;8.876;2023-04-30T04:17:51;12.38;;;6.68;;
77432;SDS011;66752;48.576;8.876;2023-04-30T04:20:17;13.15;;;6.70;;
77432;SDS011;66752;48.576;8.876;2023-04-30T04:22:43;12.35;;;5.97;;
77432;SDS011;66752;48.576;8.876;2023-04-30T04:25:09;10.95;;;6.47;;
77432;SDS011;66752;48.576;8.876;2023-04-30T04:27:35;10.85;;;6.75;;
77432;SDS011;66752;48.576;8.876;2023-04-30T04:30:02;12.13;;;7.25;;
77432;SDS011;66752;48.576;8.876;2023-04-30T04:32:28;10.65;;;6.07;;
77432;SDS011;66752;48.576;8.876;2023-04-30T04:34:54;11.90;;;6.93;;
77432;SDS011;66752;48.576;8.876;2023-04-30T04:37:21;12.00;;;6.85;;
77432;SDS011;66752;48.576;8.876;2023-04-30T04:39:47;11.10;;;6.32;;
77432;SDS011;66752;48.576;8.876;2023-04-30T04:42:14;13.40;;;7.28;;
77432;SDS011;66752;48.576;8.876;2023-04-30T04:44:44;11.45;;;7.57;;
77432;SDS011;66752;48.576;8.876;2023-04-30T04:47:10;12.55;;;6.47;;
77432;SDS011;66752;48.576;8.876;2023-04-30T04:49:36;12.73;;;6.90;;
77432;SDS011;66752;48.576;8.876;2023-04-30T04:52:02;10.70;;;6.60;;
77432;SDS011;66752;48.576;8.876;2023-04-30T04:54:29;11.80;;;6.95;;
77432;SDS011;66752;48.576;8.876;2023-04-30T04:56:55;12.43;;;7.30;;
77432;SDS011;66752;48.576;8.876;2023-04-30T04:59:21;13.32;;;7.07;;
77432;SDS011;66752;48.576;8.876;2023-04-30T05:01:47;12.43;;;6.70;;
77432;SDS011;66752;48.576;8.876;2023-04-30T05:04:13;14.27;;;7.20;;
77432;SDS011;66752;48.576;8.876;2023-04-30T05:06:39;11.15;;;6.82;;
77432;SDS011;66752;48.576;8.876;2023-04-30T05:09:06;13.45;;;7.05;;
77432;SDS011;66752;48.576;8.876;2023-04-30T05:11:33;13.20;;;7.22;;
77432;SDS011;66752;48.576;8.876;2023-04-30T05:13:59;11.52;;;6.53;;
77432;SDS011;66752;48.576;8.876;2023-04-30T05:16:25;13.57;;;7.90;;
77432;SDS011;66752;48.576;8.876;2023-04-30T05:18:51;12.98;;;6.88;;
77432;SDS011;66752;48.576;8.876;2023-04-30T05:21:17;11.93;;;6.45;;
77432;SDS011;66752;48.576;8.876;2023-04-30T05:23:43;12.35;;;7.35;;
77432;SDS011;66752;48.576;8.876;2023-04-30T05:26:09;14.73;;;7.28;;
77432;SDS011;66752;48.576;8.876;2023-04-30T05:28:35;10.30;;;6.90;;
77432;SDS011;66752;48.576;8.876;2023-04-30T05:31:01;11.57;;;7.38;;
77432;SDS011;66752;48.576;8.876;2023-04-30T05:33:27;12.05;;;7.03;;
77432;SDS011;66752;48.576;8.876;2023-04-30T05:35:53;11.32;;;6.55;;
77432;SDS011;66752;48.576;8.876;2023-04-30T05:38:19;12.63;;;7.50;;
77432;SDS011;66752;48.576;8.876;2023-04-30T05:40:45;11.43;;;6.50;;
77432;SDS011;66752;48.576;8.876;2023-04-30T05:43:11;12.70;;;7.22;;
77432;SDS011;66752;48.576;8.876;2023-04-30T05:45:36;11.75;;;6.90;;
77432;SDS011;66752;48.576;8.876;2023-04-30T05:48:02;12.23;;;7.13;;
77432;SDS011;66752;48.576;8.876;2023-04-30T05:50:29;11.80;;;7.05;;
77432;SDS011;66752;48.576;8.876;2023-04-30T05:52:55;10.80;;;6.13;;
77432;SDS011;66752;48.576;8.876;2023-04-30T05:55:21;11.07;;;6.47;;
77432;SDS011;66752;48.576;8.876;2023-04-30T05:57:47;12.98;;;7.47;;
77432;SDS011;66752;48.576;8.876;2023-04-30T06:00:13;10.57;;;6.20;;
77432;SDS011;66752;48.576;8.876;2023-04-30T06:02:40;12.18;;;7.10;;
77432;SDS011;66752;48.576;8.876;2023-04-30T06:05:09;11.50;;;6.55;;
77432;SDS011;66752;48.576;8.876;2023-04-30T06:07:35;12.55;;;6.82;;
77432;SDS011;66752;48.576;8.876;2023-04-30T06:10:02;11.00;;;6.50;;
77432;SDS011;66752;48.576;8.876;2023-04-30T06:12:28;12.13;;;7.15;;
77432;SDS011;66752;48.576;8.876;2023-04-30T06:14:54;11.65;;;6.55;;
77432;SDS011;66752;48.576;8.876;2023-04-30T06:17:20;10.48;;;6.75;;
77432;SDS011;66752;48.576;8.876;2023-04-30T06:19:46;12.27;;;6.68;;
77432;SDS011;66752;48.576;8.876;2023-04-30T06:22:12;10.93;;;6.20;;
77432;SDS011;66752;48.576;8.876;2023-04-30T06:24:38;12.73;;;6.70;;
77432;SDS011;66752;48.576;8.876;2023-04-30T06:27:03;11.32;;;6.47;;
77432;SDS011;66752;48.576;8.876;2023-04-30T06:29:29;11.82;;;7.10;;
77432;SDS011;66752;48.576;8.876;2023-04-30T06:31:55;10.95;;;6.40;;
77432;SDS011;66752;48.576;8.876;2023-04-30T06:34:21;10.73;;;6.60;;
77432;SDS011;66752;48.576;8.876;2023-04-30T06:36:47;10.75;;;6.53;;
77432;SDS011;66752;48.576;8.876;2023-04-30T06:39:14;11.35;;;6.03;;
77432;SDS011;66752;48.576;8.876;2023-04-30T06:44:07;9.80;;;5.43;;
77432;SDS011;66752;48.576;8.876;2023-04-30T06:46:33;9.38;;;5.82;;
77432;SDS011;66752;48.576;8.876;2023-04-30T06:48:59;12.35;;;6.18;;
77432;SDS011;66752;48.576;8.876;2023-04-30T06:51:25;12.43;;;6.63;;
77432;SDS011;66752;48.576;8.876;2023-04-30T06:53:51;12.13;;;6.88;;
77432;SDS011;66752;48.576;8.876;2023-04-30T06:56:17;10.75;;;6.38;;
77432;SDS011;66752;48.576;8.876;2023-04-30T06:58:45;10.27;;;6.30;;
77432;SDS011;66752;48.576;8.876;2023-04-30T07:01:11;10.73;;;5.75;;
77432;SDS011;66752;48.576;8.876;2023-04-30T07:03:37;11.55;;;7.22;;
77432;SDS011;66752;48.576;8.876;2023-04-30T07:06:04;11.88;;;6.47;;
77432;SDS011;66752;48.576;8.876;2023-04-30T07:08:30;10.43;;;6.13;;
77432;SDS011;66752;48.576;8.876;2023-04-30T07:10:55;13.77;;;7.35;;
77432;SDS011;66752;48.576;8.876;2023-04-30T07:13:22;11.68;;;6.60;;
77432;SDS011;66752;48.576;8.876;2023-04-30T07:15:47;12.60;;;6.47;;
77432;SDS011;66752;48.576;8.876;2023-04-30T07:18:14;10.90;;;6.90;;
77432;SDS011;66752;48.576;8.876;2023-04-30T07:20:40;12.20;;;7.15;;
77432;SDS011;66752;48.576;8.876;2023-04-30T07:23:06;10.35;;;6.50;;
77432;SDS011;66752;48.576;8.876;2023-04-30T07:25:33;13.25;;;6.53;;
77432;SDS011;66752;48.576;8.876;2023-04-30T07:27:59;12.48;;;6.60;;
77432;SDS011;66752;48.576;8.876;2023-04-30T07:30:25;11.82;;;7.63;;
77432;SDS011;66752;48.576;8.876;2023-04-30T07:32:51;10.57;;;6.53;;
77432;SDS011;66752;48.576;8.876;2023-04-30T07:35:17;11.25;;;6.30;;
77432;SDS011;66752;48.576;8.876;2023-04-30T07:37:43;10.55;;;5.97;;
77432;SDS011;66752;48.576;8.876;2023-04-30T07:40:09;11.95;;;6.35;;
77432;SDS011;66752;48.576;8.876;2023-04-30T07:42:39;10.63;;;6.70;;
77432;SDS011;66752;48.576;8.876;2023-04-30T07:45:06;12.48;;;6.20;;
77432;SDS011;66752;48.576;8.876;2023-04-30T07:47:32;9.95;;;5.85;;
77432;SDS011;66752;48.576;8.876;2023-04-30T07:49:58;9.50;;;5.38;;
77432;SDS011;66752;48.576;8.876;2023-04-30T07:52:24;10.85;;;6.20;;
77432;SDS011;66752;48.576;8.876;2023-04-30T07:54:50;10.63;;;6.13;;
77432;SDS011;66752;48.576;8.876;2023-04-30T07:57:17;8.82;;;4.97;;
77432;SDS011;66752;48.576;8.876;2023-04-30T07:59:43;9.90;;;4.82;;
77432;SDS011;66752;48.576;8.876;2023-04-30T08:02:08;8.32;;;4.95;;
77432;SDS011;66752;48.576;8.876;2023-04-30T08:04:34;10.63;;;5.50;;
77432;SDS011;66752;48.576;8.876;2023-04-30T08:07:00;9.05;;;5.05;;
77432;SDS011;66752;48.576;8.876;2023-04-30T08:09:28;8.88;;;5.57;;
77432;SDS011;66752;48.576;8.876;2023-04-30T08:11:54;8.05;;;4.53;;
77432;SDS011;66752;48.576;8.876;2023-04-30T08:14:20;8.82;;;5.78;;
77432;SDS011;66752;48.576;8.876;2023-04-30T08:16:46;8.30;;;5.00;;
77432;SDS011;66752;48.576;8.876;2023-04-30T08:19:12;7.88;;;5.13;;
77432;SDS011;66752;48.576;8.876;2023-04-30T08:21:38;7.32;;;3.92;;
77432;SDS011;66752;48.576;8.876;2023-04-30T08:24:04;6.00;;;3.53;;
77432;SDS011;66752;48.576;8.876;2023-04-30T08:26:30;7.07;;;3.67;;
77432;SDS011;66752;48.576;8.876;2023-04-30T08:28:56;7.88;;;4.25;;
77432;SDS011;66752;48.576;8.876;2023-04-30T08:31:22;7.25;;;4.00;;
77432;SDS011;66752;48.576;8.876;2023-04-30T08:33:48;6.38;;;3.58;;
77432;SDS011;66752;48.576;8.876;2023-04-30T08:36:14;7.45;;;3.83;;
77432;SDS011;66752;48.576;8.876;2023-04-30T08:38:40;7.00;;;3.80;;
77432;SDS011;66752;48.576;8.876;2023-04-30T08:41:12;7.22;;;3.90;;
77432;SDS011;66752;48.576;8.876;2023-04-30T08:43:39;6.88;;;3.75;;
77432;SDS011;66752;48.576;8.876;2023-04-30T08:48:31;6.65;;;3.53;;
77432;SDS011;66752;48.576;8.876;2023-04-30T08:51:00;6.20;;;3.60;;
77432;SDS011;66752;48.576;8.876;2023-04-30T08:53:26;7.50;;;3.78;;
77432;SDS011;66752;48.576;8.876;2023-04-30T08:55:52;8.35;;;3.95;;
77432;SDS011;66752;48.576;8.876;2023-04-30T08:58:18;7.82;;;3.95;;
77432;SDS011;66752;48.576;8.876;2023-04-30T09:00:44;7.38;;;3.70;;
77432;SDS011;66752;48.576;8.876;2023-04-30T09:03:10;7.10;;;4.60;;
77432;SDS011;66752;48.576;8.876;2023-04-30T09:05:36;7.03;;;4.25;;
77432;SDS011;66752;48.576;8.876;2023-04-30T09:08:02;7.53;;;4.93;;
77432;SDS011;66752;48.576;8.876;2023-04-30T09:10:31;6.82;;;4.07;;
77432;SDS011;66752;48.576;8.876;2023-04-30T09:12:58;6.97;;;4.10;;
77432;SDS011;66752;48.576;8.876;2023-04-30T09:15:25;6.78;;;4.18;;
77432;SDS011;66752;48.576;8.876;2023-04-30T09:20:32;7.20;;;4.20;;
77432;SDS011;66752;48.576;8.876;2023-04-30T09:23:05;6.97;;;4.13;;
77432;SDS011;66752;48.576;8.876;2023-04-30T09:25:38;6.30;;;4.10;;
77432;SDS011;66752;48.576;8.876;2023-04-30T09:30:34;6.05;;;3.72;;
77432;SDS011;66752;48.576;8.876;2023-04-30T09:33:00;5.88;;;3.70;;
77432;SDS011;66752;48.576;8.876;2023-04-30T09:35:30;7.00;;;4.38;;
77432;SDS011;66752;48.576;8.876;2023-04-30T09:37:58;7.05;;;3.53;;
77432;SDS011;66752;48.576;8.876;2023-04-30T09:40:37;6.35;;;3.80;;
77432;SDS011;66752;48.576;8.876;2023-04-30T09:43:07;5.72;;;3.30;;
77432;SDS011;66752;48.576;8.876;2023-04-30T09:45:43;7.22;;;3.55;;
77432;SDS011;66752;48.576;8.876;2023-04-30T09:48:11;6.00;;;3.20;;
77432;SDS011;66752;48.576;8.876;2023-04-30T09:50:38;7.40;;;3.67;;
77432;SDS011;66752;48.576;8.876;2023-04-30T09:53:07;6.03;;;3.42;;
77432;SDS011;66752;48.576;8.876;2023-04-30T09:55:34;6.10;;;3.17;;
77432;SDS011;66752;48.576;8.876;2023-04-30T09:58:06;6.97;;;3.28;;
77432;SDS011;66752;48.576;8.876;2023-04-30T10:00:33;6.90;;;3.28;;
77432;SDS011;66752;48.576;8.876;2023-04-30T10:03:07;5.25;;;2.97;;
77432;SDS011;66752;48.576;8.876;2023-04-30T10:05:36;6.30;;;2.80;;
77432;SDS011;66752;48.576;8.876;2023-04-30T10:08:04;5.35;;;2.85;;
77432;SDS011;66752;48.576;8.876;2023-04-30T10:10:32;5.85;;;2.90;;
77432;SDS011;66752;48.576;8.876;2023-04-30T10:12:59;5.78;;;2.80;;
77432;SDS011;66752;48.576;8.876;2023-04-30T10:15:29;6.07;;;2.97;;
77432;SDS011;66752;48.576;8.876;2023-04-30T10:18:05;5.70;;;3.28;;
77432;SDS011;66752;48.576;8.876;2023-04-30T10:20:35;6.90;;;2.72;;
77432;SDS011;66752;48.576;8.876;2023-04-30T10:23:01;5.50;;;2.92;;
77432;SDS011;66752;48.576;8.876;2023-04-30T10:25:27;5.72;;;3.15;;
77432;SDS011;66752;48.576;8.876;2023-04-30T10:27:53;5.43;;;3.20;;
77432;SDS011;66752;48.576;8.876;2023-04-30T10:30:20;5.97;;;2.83;;
77432;SDS011;66752;48.576;8.876;2023-04-30T10:35:20;5.65;;;2.80;;
77432;SDS011;66752;48.576;8.876;2023-04-30T10:37:54;5.15;;;2.90;;
77432;SDS011;66752;48.576;8.876;2023-04-30T10:40:24;5.63;;;2.88;;
77432;SDS011;66752;48.576;8.876;2023-04-30T10:42:52;5.15;;;2.55;;
77432;SDS011;66752;48.576;8.876;2023-04-30T10:45:19;4.95;;;2.92;;
77432;SDS011;66752;48.576;8.876;2023-04-30T10:48:00;5.30;;;2.72;;
77432;SDS011;66752;48.576;8.876;2023-04-30T10:50:27;5.40;;;3.35;;
77432;SDS011;66752;48.576;8.876;2023-04-30T10:53:00;6.30;;;3.40;;
77432;SDS011;66752;48.576;8.876;2023-04-30T10:55:28;5.53;;;2.83;;
77432;SDS011;66752;48.576;8.876;2023-04-30T10:57:56;5.63;;;3.22;;
77432;SDS011;66752;48.576;8.876;2023-04-30T11:00:26;5.78;;;3.33;;
77432;SDS011;66752;48.576;8.876;2023-04-30T11:02:56;4.93;;;2.58;;
77432;SDS011;66752;48.576;8.876;2023-04-30T11:05:33;5.55;;;2.65;;
77432;SDS011;66752;48.576;8.876;2023-04-30T11:07:59;5.57;;;3.25;;
77432;SDS011;66752;48.576;8.876;2023-04-30T11:10:26;5.20;;;3.10;;
77432;SDS011;66752;48.576;8.876;2023-04-30T11:12:53;5.55;;;3.15;;
77432;SDS011;66752;48.576;8.876;2023-04-30T11:15:20;6.45;;;3.20;;
77432;SDS011;66752;48.576;8.876;2023-04-30T11:17:47;5.70;;;3.25;;
77432;SDS011;66752;48.576;8.876;2023-04-30T11:20:17;6.15;;;3.17;;
77432;SDS011;66752;48.576;8.876;2023-04-30T11:22:44;5.07;;;3.20;;
77432;SDS011;66752;48.576;8.876;2023-04-30T11:25:10;4.45;;;2.92;;
77432;SDS011;66752;48.576;8.876;2023-04-30T11:27:37;4.55;;;2.58;;
77432;SDS011;66752;48.576;8.876;2023-04-30T11:30:08;6.15;;;3.47;;
77432;SDS011;66752;48.576;8.876;2023-04-30T11:32:35;6.25;;;3.28;;
77432;SDS011;66752;48.576;8.876;2023-04-30T11:35:02;8.85;;;3.25;;
77432;SDS011;66752;48.576;8.876;2023-04-30T11:37:29;5.75;;;3.53;;
77432;SDS011;66752;48.576;8.876;2023-04-30T11:39:56;9.60;;;5.65;;
77432;SDS011;66752;48.576;8.876;2023-04-30T11:42:24;7.43;;;3.58;;
77432;SDS011;66752;48.576;8.876;2023-04-30T11:44:50;19.92;;;13.65;;
77432;SDS011;66752;48.576;8.876;2023-04-30T11:47:16;5.68;;;3.42;;
77432;SDS011;66752;48.576;8.876;2023-04-30T11:49:42;17.52;;;11.68;;
77432;SDS011;66752;48.576;8.876;2023-04-30T11:52:08;35.55;;;23.30;;
77432;SDS011;66752;48.576;8.876;2023-04-30T11:54:35;41.65;;;24.95;;
77432;SDS011;66752;48.576;8.876;2023-04-30T11:57:02;14.63;;;10.77;;
77432;SDS011;66752;48.576;8.876;2023-04-30T11:59:28;11.07;;;6.47;;
77432;SDS011;66752;48.576;8.876;2023-04-30T12:01:55;12.18;;;9.05;;
77432;SDS011;66752;48.576;8.876;2023-04-30T12:06:47;6.43;;;3.45;;
77432;SDS011;66752;48.576;8.876;2023-04-30T12:09:13;11.93;;;4.72;;
77432;SDS011;66752;48.576;8.876;2023-04-30T12:11:39;9.48;;;5.30;;
77432;SDS011;66752;48.576;8.876;2023-04-30T12:14:06;18.85;;;11.75;;
77432;SDS011;66752;48.576;8.876;2023-04-30T12:19:10;8.60;;;5.43;;
77432;SDS011;66752;48.576;8.876;2023-04-30T12:21:36;7.25;;;4.65;;
77432;SDS011;66752;48.576;8.876;2023-04-30T12:24:04;8.40;;;4.80;;
77432;SDS011;66752;48.576;8.876;2023-04-30T12:26:33;6.75;;;3.88;;
77432;SDS011;66752;48.576;8.876;2023-04-30T12:29:01;7.50;;;3.85;;
77432;SDS011;66752;48.576;8.876;2023-04-30T12:31:27;7.28;;;3.47;;
77432;SDS011;66752;48.576;8.876;2023-04-30T12:33:56;6.10;;;2.90;;
77432;SDS011;66752;48.576;8.876;2023-04-30T12:36:27;5.30;;;2.92;;
77432;SDS011;66752;48.576;8.876;2023-04-30T12:39:05;5.50;;;3.40;;
77432;SDS011;66752;48.576;8.876;2023-04-30T12:41:36;4.95;;;2.97;;
77432;SDS011;66752;48.576;8.876;2023-04-30T12:44:15;7.88;;;3.53;;
77432;SDS011;66752;48.576;8.876;2023-04-30T12:46:41;5.25;;;2.90;;
77432;SDS011;66752;48.576;8.876;2023-04-30T12:49:07;5.10;;;3.00;;
77432;SDS011;66752;48.576;8.876;2023-04-30T12:51:35;5.15;;;2.95;;
77432;SDS011;66752;48.576;8.876;2023-04-30T12:54:01;5.80;;;3.13;;
77432;SDS011;66752;48.576;8.876;2023-04-30T12:56:27;6.32;;;2.70;;
77432;SDS011;66752;48.576;8.876;2023-04-30T12:58:53;5.20;;;2.90;;
77432;SDS011;66752;48.576;8.876;2023-04-30T13:01:19;8.43;;;3.80;;
77432;SDS011;66752;48.576;8.876;2023-04-30T13:03:46;10.65;;;6.43;;
77432;SDS011;66752;48.576;8.876;2023-04-30T13:06:12;6.47;;;3.28;;
77432;SDS011;66752;48.576;8.876;2023-04-30T13:08:39;15.48;;;12.07;;
77432;SDS011;66752;48.576;8.876;2023-04-30T13:11:05;6.95;;;3.88;;
77432;SDS011;66752;48.576;8.876;2023-04-30T13:13:31;14.63;;;6.50;;
77432;SDS011;66752;48.576;8.876;2023-04-30T13:15:58;6.78;;;4.05;;
77432;SDS011;66752;48.576;8.876;2023-04-30T13:18:24;23.63;;;16.13;;
77432;SDS011;66752;48.576;8.876;2023-04-30T13:20:50;6.65;;;3.90;;
77432;SDS011;66752;48.576;8.876;2023-04-30T13:23:16;10.30;;;6.32;;
77432;SDS011;66752;48.576;8.876;2023-04-30T13:25:42;5.50;;;3.53;;
77432;SDS011;66752;48.576;8.876;2023-04-30T13:28:09;6.50;;;3.10;;
77432;SDS011;66752;48.576;8.876;2023-04-30T13:30:35;8.00;;;3.15;;
77432;SDS011;66752;48.576;8.876;2023-04-30T13:33:01;5.85;;;3.15;;
77432;SDS011;66752;48.576;8.876;2023-04-30T13:35:27;6.97;;;3.40;;
77432;SDS011;66752;48.576;8.876;2023-04-30T13:37:53;6.10;;;2.90;;
77432;SDS011;66752;48.576;8.876;2023-04-30T13:40:21;5.75;;;2.72;;
77432;SDS011;66752;48.576;8.876;2023-04-30T13:42:47;5.90;;;2.78;;
77432;SDS011;66752;48.576;8.876;2023-04-30T13:45:13;5.95;;;2.42;;
77432;SDS011;66752;48.576;8.876;2023-04-30T13:47:40;5.68;;;3.60;;
77432;SDS011;66752;48.576;8.876;2023-04-30T13:50:06;15.23;;;13.43;;
77432;SDS011;66752;48.576;8.876;2023-04-30T13:52:33;5.57;;;2.80;;
77432;SDS011;66752;48.576;8.876;2023-04-30T13:54:59;6.35;;;3.35;;
77432;SDS011;66752;48.576;8.876;2023-04-30T13:57:25;6.82;;;3.58;;
77432;SDS011;66752;48.576;8.876;2023-04-30T13:59:53;11.60;;;6.78;;
77432;SDS011;66752;48.576;8.876;2023-04-30T14:02:19;4.90;;;2.83;;
77432;SDS011;66752;48.576;8.876;2023-04-30T14:04:45;5.45;;;3.08;;
77432;SDS011;66752;48.576;8.876;2023-04-30T14:07:11;5.80;;;3.55;;
77432;SDS011;66752;48.576;8.876;2023-04-30T14:09:37;6.07;;;3.05;;
77432;SDS011;66752;48.576;8.876;2023-04-30T14:12:03;5.57;;;3.13;;
77432;SDS011;66752;48.576;8.876;2023-04-30T14:14:29;5.95;;;3.15;;
77432;SDS011;66752;48.576;8.876;2023-04-30T14:16:55;6.95;;;2.80;;
77432;SDS011;66752;48.576;8.876;2023-04-30T14:19:21;5.82;;;3.42;;
77432;SDS011;66752;48.576;8.876;2023-04-30T14:21:47;7.63;;;5.03;;
77432;SDS011;66752;48.576;8.876;2023-04-30T14:24:13;6.80;;;3.45;;
77432;SDS011;66752;48.576;8.876;2023-04-30T14:26:43;6.57;;;3.25;;
77432;SDS011;66752;48.576;8.876;2023-04-30T14:29:12;9.38;;;3.20;;
77432;SDS011;66752;48.576;8.876;2023-04-30T14:31:38;6.15;;;3.28;;
77432;SDS011;66752;48.576;8.876;2023-04-30T14:34:04;6.65;;;3.45;;
77432;SDS011;66752;48.576;8.876;2023-04-30T14:36:29;4.95;;;2.50;;
77432;SDS011;66752;48.576;8.876;2023-04-30T14:38:55;6.68;;;3.00;;
77432;SDS011;66752;48.576;8.876;2023-04-30T14:41:21;7.53;;;2.90;;
77432;SDS011;66752;48.576;8.876;2023-04-30T14:43:47;6.50;;;3.47;;
77432;SDS011;66752;48.576;8.876;2023-04-30T14:46:13;9.10;;;5.00;;
77432;SDS011;66752;48.576;8.876;2023-04-30T14:48:39;8.05;;;4.22;;
77432;SDS011;66752;48.576;8.876;2023-04-30T14:51:05;6.10;;;3.10;;
77432;SDS011;66752;48.576;8.876;2023-04-30T14:55:57;4.90;;;2.92;;
77432;SDS011;66752;48.576;8.876;2023-04-30T14:58:23;6.53;;;3.00;;
77432;SDS011;66752;48.576;8.876;2023-04-30T15:00:49;9.55;;;5.57;;
77432;SDS011;66752;48.576;8.876;2023-04-30T15:03:16;11.73;;;7.13;;
77432;SDS011;66752;48.576;8.876;2023-04-30T15:05:42;7.72;;;3.70;;
77432;SDS011;66752;48.576;8.876;2023-04-30T15:08:08;5.78;;;3.33;;
77432;SDS011;66752;48.576;8.876;2023-04-30T15:10:34;5.70;;;2.85;;
77432;SDS011;66752;48.576;8.876;2023-04-30T15:13:03;5.05;;;3.20;;
77432;SDS011;66752;48.576;8.876;2023-04-30T15:15:29;6.05;;;4.22;;
77432;SDS011;66752;48.576;8.876;2023-04-30T15:17:56;7.68;;;2.72;;
77432;SDS011;66752;48.576;8.876;2023-04-30T15:20:22;4.57;;;2.55;;
77432;SDS011;66752;48.576;8.876;2023-04-30T15:22:51;5.40;;;3.03;;
77432;SDS011;66752;48.576;8.876;2023-04-30T15:25:19;12.15;;;8.18;;